createdAt,value
2018-10-05T00:03:26.107Z,7.47
2018-10-05T00:07:30.168Z,7.70
2018-10-05T00:11:33.537Z,7.27
2018-10-05T00:15:36.944Z,7.40
2018-10-05T00:19:40.536Z,8.10
2018-10-05T00:23:48.307Z,7.53
2018-10-05T00:27:51.708Z,7.60
2018-10-05T00:31:55.069Z,7.87
2018-10-05T00:35:58.629Z,7.63
2018-10-05T00:40:02.133Z,8.60
2018-10-05T00:44:05.534Z,8.10
2018-10-05T00:48:08.908Z,8.57
2018-10-05T00:52:12.269Z,7.47
2018-10-05T00:56:17.288Z,7.37
2018-10-05T01:00:20.832Z,7.73
2018-10-05T01:04:24.190Z,7.57
2018-10-05T01:08:27.551Z,8.37
2018-10-05T01:12:30.936Z,8.63
2018-10-05T01:16:34.382Z,8.10
2018-10-05T01:20:37.785Z,7.40
2018-10-05T01:24:41.201Z,8.50
2018-10-05T01:28:44.544Z,8.00
2018-10-05T01:32:47.908Z,8.97
2018-10-05T01:36:51.276Z,8.40
2018-10-05T01:40:54.648Z,7.20
2018-10-05T01:44:58.072Z,7.33
2018-10-05T01:49:01.424Z,6.63
2018-10-05T01:53:04.784Z,6.90
2018-10-05T01:57:08.172Z,7.17
2018-10-05T02:01:11.512Z,7.40
2018-10-05T02:05:14.881Z,7.37
2018-10-05T02:09:18.235Z,6.80
2018-10-05T02:13:21.629Z,7.43
2018-10-05T02:17:25.590Z,7.03
2018-10-05T02:21:28.947Z,6.43
2018-10-05T02:25:32.307Z,7.40
2018-10-05T02:29:35.664Z,7.13
2018-10-05T02:33:39.564Z,7.73
2018-10-05T02:37:42.932Z,7.00
2018-10-05T02:41:46.357Z,7.07
2018-10-05T02:45:49.663Z,6.30
2018-10-05T02:49:53.021Z,6.90
2018-10-05T02:53:56.379Z,5.97
2018-10-05T02:57:59.756Z,6.30
2018-10-05T03:02:14.449Z,7.20
2018-10-05T03:06:17.883Z,6.87
2018-10-05T03:10:21.256Z,6.27
2018-10-05T03:14:24.635Z,7.13
2018-10-05T03:18:28.010Z,6.97
2018-10-05T03:22:31.392Z,7.40
2018-10-05T03:26:34.747Z,5.50
2018-10-05T03:30:38.226Z,6.50
2018-10-05T03:34:41.595Z,7.23
2018-10-05T03:38:44.980Z,8.27
2018-10-05T03:42:48.339Z,7.37
2018-10-05T03:46:51.708Z,7.93
2018-10-05T03:50:55.096Z,8.27
2018-10-05T03:54:58.546Z,6.83
2018-10-05T03:59:01.952Z,8.30
2018-10-05T04:03:05.360Z,8.83
2018-10-05T04:07:09.449Z,7.60
2018-10-05T04:11:12.921Z,8.50
2018-10-05T04:15:16.449Z,9.07
2018-10-05T04:19:19.854Z,9.20
2018-10-05T04:23:23.278Z,9.73
2018-10-05T04:27:26.951Z,8.17
2018-10-05T04:31:30.347Z,8.70
2018-10-05T04:35:33.748Z,8.07
2018-10-05T04:39:37.161Z,7.40
2018-10-05T04:43:40.641Z,8.90
2018-10-05T04:47:44.084Z,7.83
2018-10-05T04:51:47.993Z,6.80
2018-10-05T04:55:51.350Z,6.80
2018-10-05T04:59:54.715Z,7.30
2018-10-05T05:03:58.072Z,7.87
2018-10-05T05:08:01.448Z,7.57
2018-10-05T05:12:04.898Z,7.00
2018-10-05T05:16:08.459Z,6.30
2018-10-05T05:20:11.820Z,6.13
2018-10-05T05:24:16.369Z,6.90
2018-10-05T05:28:19.837Z,6.50
2018-10-05T05:32:23.298Z,6.70
2018-10-05T05:36:33.308Z,7.00
2018-10-05T05:40:36.744Z,6.87
2018-10-05T05:44:40.102Z,7.23
2018-10-05T05:48:44.000Z,7.40
2018-10-05T05:52:47.375Z,6.97
2018-10-05T05:56:50.820Z,6.27
2018-10-05T06:00:54.308Z,6.27
2018-10-05T06:04:57.755Z,5.80
2018-10-05T06:09:01.107Z,6.80
2018-10-05T06:13:04.604Z,6.57
2018-10-05T06:17:08.052Z,6.10
2018-10-05T06:21:11.441Z,5.90
2018-10-05T06:25:14.809Z,6.93
2018-10-05T06:29:18.210Z,5.90
2018-10-05T06:33:21.670Z,6.43
2018-10-05T06:37:28.116Z,6.77
2018-10-05T06:41:31.509Z,6.27
2018-10-05T06:45:34.936Z,6.63
2018-10-05T06:49:38.377Z,6.50
2018-10-05T06:53:41.784Z,6.57
2018-10-05T06:57:45.199Z,6.90
2018-10-05T07:01:48.603Z,6.27
2018-10-05T07:05:51.978Z,6.50
2018-10-05T07:09:55.313Z,5.83
2018-10-05T07:13:58.685Z,6.20
2018-10-05T07:18:02.031Z,4.80
2018-10-05T07:22:05.387Z,5.07
2018-10-05T07:26:08.769Z,5.07
2018-10-05T07:30:12.220Z,4.87
2018-10-05T07:34:15.600Z,4.70
2018-10-05T07:38:18.944Z,4.47
2018-10-05T07:42:22.299Z,4.47
2018-10-05T07:46:25.653Z,3.73
2018-10-05T07:50:29.032Z,4.10
2018-10-05T07:54:32.393Z,4.63
2018-10-05T07:58:35.763Z,4.30
2018-10-05T08:02:39.161Z,3.90
2018-10-05T08:06:42.531Z,3.93
2018-10-05T08:10:45.953Z,3.50
2018-10-05T08:14:49.336Z,3.80
2018-10-05T08:18:52.692Z,3.73
2018-10-05T08:22:56.085Z,3.60
2018-10-05T08:26:59.477Z,3.83
2018-10-05T08:31:02.837Z,3.97
2018-10-05T08:35:06.230Z,3.43
2018-10-05T08:39:10.790Z,3.57
2018-10-05T08:43:14.189Z,4.07
2018-10-05T08:47:17.572Z,3.40
2018-10-05T08:51:21.045Z,4.00
2018-10-05T08:55:24.420Z,3.40
2018-10-05T08:59:27.791Z,3.70
2018-10-05T09:03:30.931Z,3.17
2018-10-05T09:07:34.086Z,3.43
2018-10-05T09:11:37.213Z,3.03
2018-10-05T09:15:40.374Z,3.70
2018-10-05T09:19:43.503Z,3.13
2018-10-05T09:23:46.667Z,2.63
2018-10-05T09:27:49.808Z,3.00
2018-10-05T09:31:52.939Z,2.87
2018-10-05T09:35:56.083Z,3.47
2018-10-05T09:39:59.248Z,2.93
2018-10-05T09:44:02.400Z,2.97
2018-10-05T09:48:05.568Z,3.23
2018-10-05T09:52:08.714Z,2.60
2018-10-05T09:56:11.870Z,3.10
2018-10-05T10:00:20.573Z,3.27
2018-10-05T10:04:24.068Z,3.50
2018-10-05T10:08:27.427Z,3.70
2018-10-05T10:12:31.130Z,3.13
2018-10-05T10:16:34.863Z,3.13
2018-10-05T10:20:38.223Z,2.93
2018-10-05T10:24:41.601Z,3.40
2018-10-05T10:28:45.285Z,3.00
2018-10-05T10:32:48.361Z,3.00
2018-10-05T10:36:51.759Z,3.53
2018-10-05T10:40:55.124Z,3.47
2018-10-05T10:44:58.220Z,3.20
2018-10-05T10:49:01.588Z,3.27
2018-10-05T10:53:05.030Z,4.20
2018-10-05T10:57:08.329Z,3.17
2018-10-05T11:01:11.688Z,3.57
2018-10-05T11:05:15.080Z,2.67
2018-10-05T11:09:18.441Z,3.33
2018-10-05T11:13:21.584Z,2.83
2018-10-05T11:17:24.940Z,3.07
2018-10-05T11:21:28.295Z,3.13
2018-10-05T11:25:31.666Z,2.80
2018-10-05T11:29:35.146Z,2.87
2018-10-05T11:33:38.277Z,2.40
2018-10-05T11:37:41.399Z,2.67
2018-10-05T11:41:44.558Z,2.80
2018-10-05T11:45:47.696Z,2.40
2018-10-05T11:49:50.840Z,2.73
2018-10-05T11:53:54.224Z,2.73
2018-10-05T11:57:57.408Z,2.63
2018-10-05T12:02:01.017Z,2.10
2018-10-05T12:06:04.173Z,2.20
2018-10-05T12:10:07.980Z,2.50
2018-10-05T12:14:11.192Z,2.40
2018-10-05T12:18:14.320Z,1.97
2018-10-05T12:22:17.467Z,2.83
2018-10-05T12:26:20.660Z,2.40
2018-10-05T12:30:23.803Z,2.35
2018-10-05T12:34:26.960Z,2.80
2018-10-05T12:38:30.097Z,2.50
2018-10-05T12:42:33.521Z,2.40
2018-10-05T12:46:37.537Z,2.23
2018-10-05T12:50:41.765Z,2.67
2018-10-05T12:54:45.134Z,2.40
2018-10-05T12:58:48.521Z,1.83
2018-10-05T13:02:52.137Z,2.10
2018-10-05T13:06:55.525Z,2.43
2018-10-05T13:10:58.892Z,2.47
2018-10-05T13:15:02.298Z,2.27
2018-10-05T13:19:06.765Z,1.60
2018-10-05T13:23:10.128Z,1.57
2018-10-05T13:27:13.492Z,1.83
2018-10-05T13:31:16.877Z,1.60
2018-10-05T13:35:20.405Z,1.80
2018-10-05T13:39:23.747Z,1.93
2018-10-05T13:43:27.114Z,2.43
2018-10-05T13:47:30.475Z,1.73
2018-10-05T13:51:34.600Z,1.80
2018-10-05T13:55:38.217Z,1.97
2018-10-05T13:59:41.725Z,2.03
2018-10-05T14:03:45.089Z,2.00
2018-10-05T14:07:48.456Z,2.03
2018-10-05T14:11:51.833Z,1.90
2018-10-05T14:15:55.340Z,1.83
2018-10-05T14:19:58.687Z,2.10
2018-10-05T14:24:02.259Z,1.70
2018-10-05T14:28:05.674Z,1.97
2018-10-05T14:32:09.857Z,2.73
2018-10-05T14:36:13.236Z,1.77
2018-10-05T14:40:16.693Z,2.03
2018-10-05T14:44:20.135Z,2.53
2018-10-05T14:48:23.533Z,2.37
2018-10-05T14:52:26.876Z,2.57
2018-10-05T14:56:30.016Z,1.80
2018-10-05T15:00:33.260Z,2.10
2018-10-05T15:04:36.839Z,1.90
2018-10-05T15:08:39.979Z,2.20
2018-10-05T15:12:43.189Z,2.63
2018-10-05T15:16:47.690Z,2.50
2018-10-05T15:20:51.089Z,2.60
2018-10-05T15:24:54.236Z,2.40
2018-10-05T15:28:57.375Z,2.20
2018-10-05T15:33:00.522Z,2.60
2018-10-05T15:37:03.940Z,2.67
2018-10-05T15:41:07.200Z,2.67
2018-10-05T15:45:10.339Z,2.43
2018-10-05T15:49:13.486Z,2.40
2018-10-05T15:53:16.656Z,2.30
2018-10-05T15:57:19.799Z,2.40
2018-10-05T16:01:23.140Z,2.30
2018-10-05T16:05:26.274Z,2.70
2018-10-05T16:09:29.648Z,2.50
2018-10-05T16:13:33.025Z,2.70
2018-10-05T16:17:36.826Z,2.65
2018-10-05T16:21:40.208Z,2.67
2018-10-05T16:25:43.564Z,3.07
2018-10-05T16:29:46.925Z,2.40
2018-10-05T16:33:50.286Z,3.13
2018-10-05T16:37:54.360Z,2.50
2018-10-05T16:41:58.055Z,2.80
2018-10-05T16:46:01.497Z,2.83
2018-10-05T16:50:04.974Z,2.90
2018-10-05T16:54:08.323Z,2.80
2018-10-05T16:58:12.673Z,2.90
2018-10-05T17:02:16.037Z,2.57
2018-10-05T17:06:19.373Z,2.83
2018-10-05T17:10:22.785Z,3.20
2018-10-05T17:14:26.141Z,3.07
2018-10-05T17:18:29.527Z,4.00
2018-10-05T17:22:32.901Z,3.20
2018-10-05T17:26:36.474Z,3.40
2018-10-05T17:30:41.297Z,3.50
2018-10-05T17:34:44.682Z,3.23
2018-10-05T17:38:48.153Z,3.63
2018-10-05T17:42:51.557Z,3.73
2018-10-05T17:46:54.904Z,3.23
2018-10-05T17:50:58.779Z,2.90
2018-10-05T17:55:02.549Z,3.00
2018-10-05T17:59:05.619Z,3.60
2018-10-05T18:03:08.990Z,3.60
2018-10-05T18:07:12.380Z,3.37
2018-10-05T18:11:15.744Z,3.77
2018-10-05T18:15:19.128Z,3.47
2018-10-05T18:19:22.510Z,3.37
2018-10-05T18:23:25.884Z,4.10
2018-10-05T18:27:29.468Z,4.03
2018-10-05T18:31:32.831Z,3.90
2018-10-05T18:35:36.198Z,4.03
2018-10-05T18:39:39.565Z,3.60
2018-10-05T18:43:42.935Z,4.23
2018-10-05T18:47:46.264Z,3.70
2018-10-05T18:51:51.316Z,4.30
2018-10-05T18:55:54.704Z,4.43
2018-10-05T18:59:58.076Z,4.00
2018-10-05T19:04:01.487Z,4.63
2018-10-05T19:08:07.482Z,3.90
2018-10-05T19:12:11.859Z,3.97
2018-10-05T19:16:15.297Z,3.80
2018-10-05T19:20:18.640Z,3.80
2018-10-05T19:24:22.016Z,3.53
2018-10-05T19:28:25.376Z,3.40
2018-10-05T19:32:28.739Z,3.80
2018-10-05T19:36:32.182Z,3.23
2018-10-05T19:40:35.553Z,3.37
2018-10-05T19:44:38.904Z,3.73
2018-10-05T19:48:42.284Z,3.40
2018-10-05T19:52:45.916Z,3.87
2018-10-05T19:56:49.264Z,4.17
2018-10-05T20:00:52.614Z,3.43
2018-10-05T20:04:56.871Z,3.77
2018-10-05T20:09:00.217Z,3.47
2018-10-05T20:13:03.616Z,3.20
2018-10-05T20:17:07.040Z,3.63
2018-10-05T20:21:10.969Z,3.87
2018-10-05T20:25:15.152Z,3.67
2018-10-05T20:29:20.312Z,3.80
2018-10-05T20:33:24.241Z,3.83
2018-10-05T20:37:27.811Z,3.43
2018-10-05T20:41:31.014Z,3.40
2018-10-05T20:45:34.399Z,3.77
2018-10-05T20:49:37.784Z,3.67
2018-10-05T20:53:41.138Z,3.60
2018-10-05T20:57:44.511Z,4.20
2018-10-05T21:01:47.904Z,3.80
2018-10-05T21:05:51.273Z,3.13
2018-10-05T21:09:54.649Z,3.10
2018-10-05T21:13:58.635Z,3.97
2018-10-05T21:18:02.071Z,3.40
2018-10-05T21:22:06.092Z,3.93
2018-10-05T21:26:09.472Z,3.50
2018-10-05T21:30:12.901Z,3.77
2018-10-05T21:34:16.392Z,4.67
2018-10-05T21:38:19.876Z,3.50
2018-10-05T21:42:26.597Z,4.60
2018-10-05T21:46:30.002Z,4.20
2018-10-05T21:50:33.510Z,4.37
2018-10-05T21:54:36.856Z,3.70
2018-10-05T21:58:40.241Z,3.63
2018-10-05T22:02:43.633Z,3.20
2018-10-05T22:06:47.026Z,3.40
2018-10-05T22:10:50.423Z,3.50
2018-10-05T22:14:53.920Z,3.90
2018-10-05T22:18:57.288Z,4.50
2018-10-05T22:23:00.680Z,4.30
2018-10-05T22:27:04.082Z,4.53
2018-10-05T22:31:07.453Z,4.13
2018-10-05T22:35:10.878Z,4.03
2018-10-05T22:39:14.257Z,4.17
2018-10-05T22:43:17.627Z,4.47
2018-10-05T22:47:21.004Z,4.40
2018-10-05T22:51:24.372Z,4.17
2018-10-05T22:55:27.749Z,4.00
2018-10-05T22:59:31.132Z,4.43
2018-10-05T23:03:35.707Z,4.43
2018-10-05T23:07:39.061Z,4.40
2018-10-05T23:11:42.434Z,4.00
2018-10-05T23:15:46.632Z,4.53
2018-10-05T23:19:49.992Z,4.53
2018-10-05T23:23:53.380Z,4.23
2018-10-05T23:27:56.827Z,4.47
2018-10-05T23:32:00.214Z,4.07
2018-10-05T23:36:03.541Z,4.70
2018-10-05T23:40:07.594Z,4.47
2018-10-05T23:44:11.001Z,4.30
2018-10-05T23:48:14.964Z,4.00
2018-10-05T23:52:29.556Z,3.90
2018-10-05T23:56:33.005Z,3.67
